Time;durP1;ratioP1;P1;durP2;ratioP2;P2;SDS_P1;SDS_P2;PMS_P1;PMS_P2;Temp;Humidity;BMP_temperature;BMP_pressure;BME280_temperature;BME280_humidity;BME280_pressure;Samples;Min_cycle;Max_cycle;Signal;HPM_P1;HPM_P2
2022/11/24 04:00:43;;;;;;;;;;;9.40;99.90;;;;;;6049534;23;20305;-67
2022/11/24 04:03:09;;;;;;;;;;;9.50;99.90;;;;;;4934155;28;19933;-70
2022/11/24 04:05:36;;;;;;;;;;;9.50;99.90;;;;;;4937536;29;19969;-70
2022/11/24 04:08:04;;;;;;;;;;;9.50;99.90;;;;;;4937772;29;19965;-70
2022/11/24 04:10:31;;;;;;;;;;;9.60;99.90;;;;;;4947273;29;19936;-70
2022/11/24 04:12:57;;;;;;;;;;;9.60;99.90;;;;;;4922277;29;19927;-70
2022/11/24 04:15:24;;;;;;;;;;;9.60;99.90;;;;;;4919942;29;19923;-69
2022/11/24 04:17:54;;;;;;;;;;;9.70;99.90;;;;;;4920990;29;19966;-71
2022/11/24 04:20:20;;;;;;;;;;;9.70;99.90;;;;;;4919929;29;20041;-70
2022/11/24 04:22:49;;;;;;;;;;;9.70;99.90;;;;;;4947707;29;19942;-70
2022/11/24 04:25:16;;;;;;;;;;;9.80;99.90;;;;;;4924418;29;19926;-68
2022/11/24 04:27:43;;;;;;;;;;;9.70;99.90;;;;;;4926507;29;19933;-70
2022/11/24 04:30:10;;;;;;;;;;;9.70;99.90;;;;;;4923114;29;19934;-69
2022/11/24 04:32:36;;;;;;;;;;;9.80;99.90;;;;;;4947803;29;20004;-70
2022/11/24 04:35:04;;;;;;;;;;;9.80;99.90;;;;;;4927555;29;20066;-68
2022/11/24 04:37:31;;;;;;;;;;;9.80;99.90;;;;;;4921734;29;20087;-70
2022/11/24 04:39:58;;;;;;;;;;;9.70;99.90;;;;;;4923844;29;19933;-70
2022/11/24 04:42:25;;;;;;;;;;;9.70;99.90;;;;;;4928499;29;19930;-70
2022/11/24 04:44:51;;;;;;;;;;;9.70;99.90;;;;;;4921255;29;19927;-69
2022/11/24 04:47:20;;;;;;;;;;;9.70;99.90;;;;;;4914060;29;20382;-70
2022/11/24 04:49:47;;;;;;;;;;;9.70;99.90;;;;;;4920887;29;20010;-70
2022/11/24 04:52:15;;;;;;;;;;;9.60;99.90;;;;;;4920356;29;19933;-70
2022/11/24 04:54:41;;;;;;;;;;;9.60;99.90;;;;;;4920395;29;19927;-70
2022/11/24 04:57:09;;;;;;;;;;;9.50;99.90;;;;;;4925184;29;19931;-69
2022/11/24 04:59:36;;;;;;;;;;;9.50;99.90;;;;;;4926334;29;19930;-70
2022/11/24 05:02:03;;;;;;;;;;;9.50;99.90;;;;;;4923729;29;19934;-70
2022/11/24 05:04:29;;;;;;;;;;;9.40;99.90;;;;;;4924460;29;19981;-68
2022/11/24 05:06:56;;;;;;;;;;;9.40;99.90;;;;;;4920819;29;19931;-70
2022/11/24 05:09:24;;;;;;;;;;;9.40;99.90;;;;;;4924461;29;19935;-68
2022/11/24 05:11:51;;;;;;;;;;;9.40;99.90;;;;;;4919649;29;19934;-70
2022/11/24 05:14:18;;;;;;;;;;;9.40;99.90;;;;;;4912074;29;19926;-68
2022/11/24 05:16:45;;;;;;;;;;;9.30;99.90;;;;;;4909632;29;19927;-68
2022/11/24 05:19:12;;;;;;;;;;;9.30;99.90;;;;;;4912828;29;19937;-69
2022/11/24 05:21:39;;;;;;;;;;;9.30;99.90;;;;;;4919982;29;20007;-66
2022/11/24 05:24:06;;;;;;;;;;;9.40;99.90;;;;;;4925213;29;20385;-69
2022/11/24 05:26:35;;;;;;;;;;;9.30;99.90;;;;;;4925492;29;19926;-70
2022/11/24 05:29:01;;;;;;;;;;;9.30;99.90;;;;;;4917309;29;19930;-68
2022/11/24 05:31:28;;;;;;;;;;;9.30;99.90;;;;;;4924313;29;19941;-68
2022/11/24 05:33:55;;;;;;;;;;;9.30;99.90;;;;;;4918568;29;19955;-69
2022/11/24 05:39:06;;;;;;;;;;;9.30;99.90;;;;;;4926238;29;20374;-68
2022/11/24 05:41:34;;;;;;;;;;;9.20;99.90;;;;;;4926183;29;19974;-66
2022/11/24 05:44:01;;;;;;;;;;;9.10;99.90;;;;;;4923455;29;19938;-68
2022/11/24 05:46:28;;;;;;;;;;;8.90;99.90;;;;;;4912978;29;19926;-67
2022/11/24 05:48:54;;;;;;;;;;;8.70;99.90;;;;;;4930448;29;19930;-69
2022/11/24 05:51:21;;;;;;;;;;;8.70;99.90;;;;;;4926271;29;19930;-68
2022/11/24 05:53:48;;;;;;;;;;;8.60;99.90;;;;;;4925752;29;19935;-69
2022/11/24 05:56:15;;;;;;;;;;;8.60;99.90;;;;;;4919774;29;19926;-69
2022/11/24 05:58:43;;;;;;;;;;;8.50;99.90;;;;;;4910499;29;19931;-74
2022/11/24 06:01:11;;;;;;;;;;;8.50;99.90;;;;;;4926038;29;19931;-68
2022/11/24 06:03:37;;;;;;;;;;;8.50;99.90;;;;;;4916071;29;19926;-68
2022/11/24 06:06:04;;;;;;;;;;;8.50;99.90;;;;;;4924597;29;19927;-68
2022/11/24 06:08:31;;;;;;;;;;;8.40;99.90;;;;;;4924457;29;19974;-69
2022/11/24 06:11:15;;;;;;;;;;;8.40;99.90;;;;;;4929290;29;19926;-70
2022/11/24 06:13:44;;;;;;;;;;;8.40;99.90;;;;;;4915747;29;19933;-69
2022/11/24 06:16:11;;;;;;;;;;;8.40;99.90;;;;;;4920187;29;20469;-69
2022/11/24 06:18:38;;;;;;;;;;;8.30;99.90;;;;;;4928289;29;20358;-69
2022/11/24 06:21:05;;;;;;;;;;;8.30;99.90;;;;;;4928997;29;19930;-68
2022/11/24 06:23:32;;;;;;;;;;;8.30;99.90;;;;;;4925870;29;19927;-68
2022/11/24 06:25:59;;;;;;;;;;;8.20;99.90;;;;;;4921939;29;19930;-69
2022/11/24 06:28:27;;;;;;;;;;;8.20;99.90;;;;;;4918352;29;19927;-67
2022/11/24 06:30:55;;;;;;;;;;;8.10;99.90;;;;;;4917813;29;19934;-69
2022/11/24 06:33:22;;;;;;;;;;;8.00;99.90;;;;;;4920020;29;19931;-69
2022/11/24 06:35:48;;;;;;;;;;;8.00;99.90;;;;;;4912357;29;19926;-69
2022/11/24 06:38:16;;;;;;;;;;;7.90;99.90;;;;;;4923731;29;19934;-69
2022/11/24 06:40:43;;;;;;;;;;;7.90;99.90;;;;;;4920018;29;19926;-68
2022/11/24 06:43:10;;;;;;;;;;;7.80;99.90;;;;;;4916086;29;19927;-70
2022/11/24 06:45:37;;;;;;;;;;;7.80;99.90;;;;;;4921562;29;19934;-69
2022/11/24 06:48:05;;;;;;;;;;;7.80;99.90;;;;;;4913108;29;20357;-69
2022/11/24 06:50:32;;;;;;;;;;;7.70;99.90;;;;;;4912544;29;20477;-69
2022/11/24 06:52:59;;;;;;;;;;;7.70;99.90;;;;;;4914704;29;19926;-69
2022/11/24 06:55:25;;;;;;;;;;;7.60;99.90;;;;;;4923941;29;19926;-70
2022/11/24 06:57:52;;;;;;;;;;;7.60;99.90;;;;;;4917224;29;19926;-68
2022/11/24 07:00:19;;;;;;;;;;;7.50;99.90;;;;;;4912360;29;19935;-70
2022/11/24 07:02:46;;;;;;;;;;;7.40;99.90;;;;;;4920433;29;19927;-69
2022/11/24 07:05:14;;;;;;;;;;;7.40;99.90;;;;;;4919084;29;20402;-69
2022/11/24 07:07:41;;;;;;;;;;;7.50;99.90;;;;;;4921511;29;19978;-69
2022/11/24 07:10:08;;;;;;;;;;;7.50;99.90;;;;;;4914471;29;20398;-70
2022/11/24 07:12:35;;;;;;;;;;;7.50;99.90;;;;;;4929664;29;19926;-69
2022/11/24 07:15:02;;;;;;;;;;;7.60;99.90;;;;;;4910575;29;19935;-68
2022/11/24 07:17:28;;;;;;;;;;;7.60;99.90;;;;;;4911685;29;19927;-69
2022/11/24 07:19:55;;;;;;;;;;;7.60;99.90;;;;;;4926720;29;19982;-70
2022/11/24 07:22:23;;;;;;;;;;;7.70;99.90;;;;;;4922342;29;20370;-69
2022/11/24 07:24:50;;;;;;;;;;;7.60;99.90;;;;;;4931253;29;20444;-68
2022/11/24 07:27:17;;;;;;;;;;;7.70;99.90;;;;;;4923415;29;19927;-69
2022/11/24 07:29:44;;;;;;;;;;;7.80;99.90;;;;;;4927727;29;19998;-69
2022/11/24 07:32:10;;;;;;;;;;;7.80;99.90;;;;;;4920401;29;19927;-69
2022/11/24 07:34:37;;;;;;;;;;;7.80;99.90;;;;;;4923561;29;19946;-70
2022/11/24 07:37:04;;;;;;;;;;;7.90;99.90;;;;;;4922330;29;19947;-69
2022/11/24 07:39:32;;;;;;;;;;;8.00;99.90;;;;;;4923163;29;19931;-69
2022/11/24 07:41:59;;;;;;;;;;;8.10;99.90;;;;;;4929490;29;20553;-69
2022/11/24 07:44:26;;;;;;;;;;;8.30;99.90;;;;;;4922299;29;20462;-69
2022/11/24 07:46:53;;;;;;;;;;;8.30;99.90;;;;;;4929770;29;19934;-70
2022/11/24 07:49:20;;;;;;;;;;;8.50;99.90;;;;;;4922911;29;19982;-70
2022/11/24 07:51:46;;;;;;;;;;;8.60;99.90;;;;;;4928251;29;19927;-71
2022/11/24 07:54:13;;;;;;;;;;;8.70;99.90;;;;;;4922237;29;19939;-69
2022/11/24 07:56:42;;;;;;;;;;;8.70;99.90;;;;;;4924994;29;20373;-70
2022/11/24 07:59:08;;;;;;;;;;;8.80;99.90;;;;;;4933937;29;19930;-70
2022/11/24 08:01:35;;;;;;;;;;;8.90;99.90;;;;;;4918287;29;19927;-69
2022/11/24 08:04:02;;;;;;;;;;;8.90;99.90;;;;;;4920483;29;19938;-70
2022/11/24 08:06:29;;;;;;;;;;;8.90;99.90;;;;;;4921955;29;19933;-70
2022/11/24 08:08:56;;;;;;;;;;;9.00;99.90;;;;;;4920318;29;20014;-70
2022/11/24 08:11:23;;;;;;;;;;;9.00;99.90;;;;;;4921699;29;19926;-70
2022/11/24 08:13:51;;;;;;;;;;;9.00;99.90;;;;;;4927629;29;19931;-70
2022/11/24 08:16:18;;;;;;;;;;;9.10;99.90;;;;;;4929782;29;20348;-69
2022/11/24 08:18:48;;;;;;;;;;;9.10;99.90;;;;;;4928481;29;20385;-69
2022/11/24 08:21:15;;;;;;;;;;;9.10;99.90;;;;;;4924213;29;19927;-69
2022/11/24 08:23:42;;;;;;;;;;;9.10;99.90;;;;;;4926776;29;19931;-70
2022/11/24 08:26:12;;;;;;;;;;;9.10;99.90;;;;;;4926037;29;19926;-69
2022/11/24 08:28:39;;;;;;;;;;;9.10;99.90;;;;;;4924396;29;19926;-69
2022/11/24 08:31:08;;;;;;;;;;;9.10;99.90;;;;;;4929382;29;20341;-68
2022/11/24 08:33:36;;;;;;;;;;;9.10;99.90;;;;;;4924193;29;20382;-70
2022/11/24 08:36:03;;;;;;;;;;;9.00;99.90;;;;;;4921150;29;19931;-69
2022/11/24 08:38:30;;;;;;;;;;;9.10;99.90;;;;;;4928841;29;20405;-70
2022/11/24 08:40:59;;;;;;;;;;;9.20;99.90;;;;;;4924181;29;19926;-69
2022/11/24 08:43:26;;;;;;;;;;;9.20;99.90;;;;;;4926715;29;19983;-69
2022/11/24 08:45:53;;;;;;;;;;;9.20;99.90;;;;;;4917817;29;19985;-70
2022/11/24 08:48:21;;;;;;;;;;;9.20;99.90;;;;;;4921447;29;19927;-69
2022/11/24 08:50:48;;;;;;;;;;;9.30;99.90;;;;;;4921576;29;20029;-70
2022/11/24 08:53:14;;;;;;;;;;;9.40;99.90;;;;;;4920800;29;20457;-70
2022/11/24 08:55:41;;;;;;;;;;;9.40;99.90;;;;;;4922424;29;19926;-69
2022/11/24 08:58:08;;;;;;;;;;;9.40;99.90;;;;;;4925142;29;19926;-70
2022/11/24 09:00:35;;;;;;;;;;;9.40;99.90;;;;;;4924832;29;20393;-69
2022/11/24 09:03:02;;;;;;;;;;;9.50;99.90;;;;;;4920179;29;19934;-68
2022/11/24 09:05:30;;;;;;;;;;;9.60;99.90;;;;;;4932946;29;20317;-69
2022/11/24 09:07:57;;;;;;;;;;;9.50;99.90;;;;;;4921179;29;19927;-69
2022/11/24 09:10:24;;;;;;;;;;;9.40;99.90;;;;;;4925504;29;20071;-69
2022/11/24 09:12:51;;;;;;;;;;;9.50;99.90;;;;;;4924893;29;19930;-70
2022/11/24 09:15:19;;;;;;;;;;;9.50;99.90;;;;;;4919540;29;19927;-69
2022/11/24 09:17:45;;;;;;;;;;;9.50;99.90;;;;;;4925536;29;20026;-69
2022/11/24 09:20:12;;;;;;;;;;;9.50;99.90;;;;;;4925010;29;19935;-69
2022/11/24 09:22:41;;;;;;;;;;;9.60;99.90;;;;;;4920799;29;19927;-69
2022/11/24 09:25:09;;;;;;;;;;;9.70;99.90;;;;;;4920624;29;19927;-70
2022/11/24 09:27:36;;;;;;;;;;;9.70;99.90;;;;;;4920610;29;19927;-70
2022/11/24 09:30:03;;;;;;;;;;;9.80;99.90;;;;;;4929399;29;19962;-70
2022/11/24 09:32:30;;;;;;;;;;;9.90;99.90;;;;;;4918567;29;19938;-70
2022/11/24 09:34:57;;;;;;;;;;;9.90;99.90;;;;;;4925998;29;19974;-70
2022/11/24 09:37:24;;;;;;;;;;;9.90;99.90;;;;;;4921221;29;19931;-70
2022/11/24 09:39:52;;;;;;;;;;;9.90;99.90;;;;;;4920038;29;20303;-69
2022/11/24 09:42:26;;;;;;;;;;;10.00;99.90;;;;;;4927357;29;19947;-69
2022/11/24 09:45:15;;;;;;;;;;;10.10;99.90;;;;;;4926760;29;19927;-69
2022/11/24 09:47:46;;;;;;;;;;;10.20;99.90;;;;;;4930266;29;20006;-70
2022/11/24 09:50:14;;;;;;;;;;;10.10;99.90;;;;;;4929838;29;19937;-70
2022/11/24 09:52:44;;;;;;;;;;;10.20;99.90;;;;;;4918789;29;19942;-70
2022/11/24 09:55:19;;;;;;;;;;;10.40;99.90;;;;;;4924392;29;20067;-70
2022/11/24 09:57:48;;;;;;;;;;;10.50;99.90;;;;;;4922090;29;19927;-70
2022/11/24 10:00:16;;;;;;;;;;;10.60;99.90;;;;;;4926067;29;20008;-69
2022/11/24 10:02:45;;;;;;;;;;;10.80;99.90;;;;;;4921384;29;20461;-70
2022/11/24 10:05:12;;;;;;;;;;;10.90;99.90;;;;;;4927532;29;19934;-70
2022/11/24 10:07:43;;;;;;;;;;;11.00;99.90;;;;;;4921128;29;19926;-70
2022/11/24 10:10:14;;;;;;;;;;;10.80;99.90;;;;;;4923078;29;19949;-69
2022/11/24 10:12:49;;;;;;;;;;;10.80;99.90;;;;;;4925341;29;19926;-70
2022/11/24 10:15:26;;;;;;;;;;;11.00;99.90;;;;;;4925157;29;19931;-70
2022/11/24 10:18:14;;;;;;;;;;;13.60;99.90;;;;;;4919066;29;20382;-70
2022/11/24 10:20:48;;;;;;;;;;;15.90;99.90;;;;;;4910780;29;19978;-68
2022/11/24 10:23:23;;;;;;;;;;;17.00;99.90;;;;;;4918849;29;19934;-70
2022/11/24 10:25:53;;;;;;;;;;;18.40;99.90;;;;;;4924756;29;19926;-70
2022/11/24 10:28:21;;;;;;;;;;;18.50;99.90;;;;;;4916286;29;19927;-70
2022/11/24 10:30:49;;;;;;;;;;;18.90;99.90;;;;;;4926528;29;19930;-69
2022/11/24 10:33:18;;;;;;;;;;;18.80;99.90;;;;;;4915298;29;19927;-69
2022/11/24 10:35:46;;;;;;;;;;;18.80;99.90;;;;;;4931133;29;19939;-69
2022/11/24 10:38:16;;;;;;;;;;;18.90;99.90;;;;;;4921683;29;20363;-69
2022/11/24 10:40:45;;;;;;;;;;;19.70;99.90;;;;;;4918449;29;20353;-69
2022/11/24 10:43:12;;;;;;;;;;;20.70;99.90;;;;;;4918749;29;19934;-70
2022/11/24 10:45:41;;;;;;;;;;;21.00;99.90;;;;;;4919697;29;20006;-68
2022/11/24 10:48:17;;;;;;;;;;;19.80;99.90;;;;;;4928131;29;19934;-69
2022/11/24 10:50:44;;;;;;;;;;;20.80;99.90;;;;;;4925057;29;20001;-69
2022/11/24 10:53:16;;;;;;;;;;;20.40;99.90;;;;;;4918503;29;19927;-69
2022/11/24 10:56:03;;;;;;;;;;;20.30;99.90;;;;;;4927616;29;19926;-69
2022/11/24 10:58:31;;;;;;;;;;;21.60;99.90;;;;;;4925954;29;19926;-69
2022/11/24 11:01:00;;;;;;;;;;;20.30;99.90;;;;;;4931481;29;19938;-69
2022/11/24 11:03:27;;;;;;;;;;;21.60;99.90;;;;;;4921491;29;19934;-70
2022/11/24 11:05:56;;;;;;;;;;;22.00;99.90;;;;;;4931405;29;19938;-69
2022/11/24 11:08:27;;;;;;;;;;;20.80;99.90;;;;;;4927863;29;20410;-70
2022/11/24 11:11:27;;;;;;;;;;;21.10;99.90;;;;;;4919621;29;19989;-69
2022/11/24 11:13:55;;;;;;;;;;;21.30;99.90;;;;;;4826396;29;19933;-69
2022/11/24 11:16:29;;;;;;;;;;;22.20;99.90;;;;;;4830301;29;19951;-69
2022/11/24 11:18:56;;;;;;;;;;;21.10;99.90;;;;;;4877065;29;19934;-69
2022/11/24 11:21:27;;;;;;;;;;;20.30;99.90;;;;;;4925341;29;19926;-67
2022/11/24 11:23:54;;;;;;;;;;;20.70;99.90;;;;;;4918871;29;19981;-70
2022/11/24 11:26:30;;;;;;;;;;;21.20;99.90;;;;;;4920700;29;19934;-69
2022/11/24 11:28:59;;;;;;;;;;;22.60;99.90;;;;;;4912243;29;19970;-69
2022/11/24 11:31:28;;;;;;;;;;;22.60;99.90;;;;;;4918916;29;19979;-69
2022/11/24 11:33:56;;;;;;;;;;;22.30;99.90;;;;;;4911906;29;19931;-69
2022/11/24 11:36:23;;;;;;;;;;;21.80;99.90;;;;;;4923089;29;19927;-69
2022/11/24 11:38:50;;;;;;;;;;;20.40;99.90;;;;;;4920007;29;19934;-68
2022/11/24 11:41:19;;;;;;;;;;;21.80;99.90;;;;;;4929445;29;19934;-69
2022/11/24 11:43:48;;;;;;;;;;;20.90;99.90;;;;;;4922469;29;19958;-68
2022/11/24 11:46:15;;;;;;;;;;;22.50;99.90;;;;;;4921397;29;20033;-69
2022/11/24 11:48:45;;;;;;;;;;;23.70;99.90;;;;;;4930287;29;20377;-69
2022/11/24 11:51:22;;;;;;;;;;;23.50;99.90;;;;;;4934843;29;19926;-68
2022/11/24 11:53:53;;;;;;;;;;;24.70;99.90;;;;;;4925764;29;19927;-69
2022/11/24 11:56:22;;;;;;;;;;;22.80;99.90;;;;;;4927077;29;19926;-69
2022/11/24 11:59:09;;;;;;;;;;;24.00;99.90;;;;;;4930692;29;19927;-67
2022/11/24 12:01:41;;;;;;;;;;;23.50;99.90;;;;;;4927933;29;19934;-69
2022/11/24 12:04:16;;;;;;;;;;;23.10;99.90;;;;;;4933949;29;19926;-69
2022/11/24 12:06:49;;;;;;;;;;;23.90;99.90;;;;;;4919701;29;19934;-70
2022/11/24 12:09:20;;;;;;;;;;;23.70;99.90;;;;;;4925047;29;20330;-70
2022/11/24 12:11:50;;;;;;;;;;;22.10;99.90;;;;;;4924805;29;19991;-70
2022/11/24 12:14:23;;;;;;;;;;;22.90;99.90;;;;;;4921834;29;19931;-70
2022/11/24 12:16:56;;;;;;;;;;;21.90;99.90;;;;;;4924137;29;19931;-70
2022/11/24 12:19:36;;;;;;;;;;;22.50;99.90;;;;;;4919093;29;19927;-69
2022/11/24 12:22:06;;;;;;;;;;;22.70;99.90;;;;;;4917646;29;19927;-71
2022/11/24 12:24:38;;;;;;;;;;;22.90;99.90;;;;;;4923874;29;19927;-70
2022/11/24 12:27:10;;;;;;;;;;;23.00;99.90;;;;;;4921381;29;19927;-70
2022/11/24 12:29:49;;;;;;;;;;;21.80;99.90;;;;;;4930568;29;19938;-69
2022/11/24 12:32:24;;;;;;;;;;;22.40;99.90;;;;;;4931969;29;19926;-69
2022/11/24 12:34:55;;;;;;;;;;;23.60;99.90;;;;;;4931943;29;19926;-69
2022/11/24 12:37:32;;;;;;;;;;;24.20;99.90;;;;;;4922102;29;19933;-69
2022/11/24 12:40:04;;;;;;;;;;;24.10;99.90;;;;;;4919466;29;19974;-68
2022/11/24 12:42:37;;;;;;;;;;;23.20;99.90;;;;;;4921546;29;19931;-69
2022/11/24 12:45:12;;;;;;;;;;;23.60;99.90;;;;;;4915562;29;19934;-69
2022/11/24 12:47:50;;;;;;;;;;;23.40;99.90;;;;;;4927970;29;19962;-70
2022/11/24 12:50:20;;;;;;;;;;;22.90;99.90;;;;;;4922314;29;19933;-70
2022/11/24 12:52:47;;;;;;;;;;;21.20;99.90;;;;;;4925793;29;19931;-69
2022/11/24 12:55:17;;;;;;;;;;;20.70;99.90;;;;;;4925500;29;19970;-69
2022/11/24 12:57:47;;;;;;;;;;;22.10;99.90;;;;;;4925586;29;19993;-69
2022/11/24 13:00:19;;;;;;;;;;;22.30;99.90;;;;;;4920367;29;19927;-70
2022/11/24 13:02:51;;;;;;;;;;;21.50;99.90;;;;;;4932320;29;19927;-69
2022/11/24 13:05:22;;;;;;;;;;;21.50;99.90;;;;;;4920810;29;20025;-69
2022/11/24 13:07:50;;;;;;;;;;;22.40;99.90;;;;;;4926445;29;20338;-70
2022/11/24 13:10:27;;;;;;;;;;;22.80;99.90;;;;;;4920282;29;19927;-70
2022/11/24 13:12:55;;;;;;;;;;;22.30;99.90;;;;;;4913572;29;19927;-70
2022/11/24 13:15:22;;;;;;;;;;;22.20;99.90;;;;;;4921128;29;19933;-70
2022/11/24 13:17:48;;;;;;;;;;;21.50;99.90;;;;;;4921254;29;19927;-69
2022/11/24 13:20:20;;;;;;;;;;;21.80;99.90;;;;;;4926349;29;19986;-70
2022/11/24 13:22:51;;;;;;;;;;;22.20;99.90;;;;;;4927125;29;19942;-69
2022/11/24 13:25:19;;;;;;;;;;;21.90;99.90;;;;;;4924616;29;19934;-69
2022/11/24 13:27:48;;;;;;;;;;;21.70;99.90;;;;;;4922959;29;19927;-70
2022/11/24 13:30:33;;;;;;;;;;;21.60;99.90;;;;;;4929028;29;20345;-69
2022/11/24 13:33:01;;;;;;;;;;;21.10;99.90;;;;;;4920498;29;20058;-70
2022/11/24 13:35:28;;;;;;;;;;;20.70;99.90;;;;;;4924584;29;19927;-69
2022/11/24 13:37:56;;;;;;;;;;;20.00;99.90;;;;;;4922787;29;19926;-70
2022/11/24 13:40:39;;;;;;;;;;;19.50;99.90;;;;;;4925292;29;20302;-70
2022/11/24 13:43:19;;;;;;;;;;;19.80;99.90;;;;;;4917410;29;19930;-70
2022/11/24 13:45:50;;;;;;;;;;;20.10;99.90;;;;;;4933214;29;19937;-69
2022/11/24 13:48:36;;;;;;;;;;;19.90;99.90;;;;;;4921299;29;19926;-70
2022/11/24 13:51:14;;;;;;;;;;;19.60;99.90;;;;;;4924613;29;19931;-70
2022/11/24 13:53:44;;;;;;;;;;;19.90;99.90;;;;;;4921000;29;19994;-70
2022/11/24 13:56:21;;;;;;;;;;;19.40;99.90;;;;;;4927875;29;19926;-70
2022/11/24 13:58:48;;;;;;;;;;;20.20;99.90;;;;;;4925548;29;19931;-69
2022/11/24 14:01:17;;;;;;;;;;;20.10;99.90;;;;;;4922980;29;19927;-70
2022/11/24 14:03:53;;;;;;;;;;;19.60;99.90;;;;;;4928496;29;20350;-68
2022/11/24 14:06:23;;;;;;;;;;;18.20;99.90;;;;;;4916129;29;20350;-70
2022/11/24 14:08:52;;;;;;;;;;;17.00;99.90;;;;;;4930051;29;19982;-69
2022/11/24 14:11:19;;;;;;;;;;;16.80;99.90;;;;;;4928105;29;19930;-70
2022/11/24 14:13:46;;;;;;;;;;;17.20;99.90;;;;;;4920857;29;19979;-70
2022/11/24 14:16:17;;;;;;;;;;;16.60;99.90;;;;;;4925952;29;19998;-70
2022/11/24 14:18:45;;;;;;;;;;;16.70;99.90;;;;;;4920724;29;19927;-69
2022/11/24 14:21:29;;;;;;;;;;;17.20;99.90;;;;;;4922623;29;19934;-70
2022/11/24 14:23:59;;;;;;;;;;;17.40;99.90;;;;;;4922306;29;19931;-70
2022/11/24 14:26:29;;;;;;;;;;;17.70;99.90;;;;;;4921066;29;19930;-68
2022/11/24 14:29:02;;;;;;;;;;;17.50;99.90;;;;;;4912350;29;19931;-70
2022/11/24 14:31:29;;;;;;;;;;;17.50;99.90;;;;;;4918143;29;19927;-70
2022/11/24 14:34:12;;;;;;;;;;;18.00;99.90;;;;;;4932303;29;20393;-70
2022/11/24 14:36:39;;;;;;;;;;;18.30;99.90;;;;;;4920542;29;19927;-69
2022/11/24 14:39:11;;;;;;;;;;;18.30;99.90;;;;;;4919081;29;20483;-70
2022/11/24 14:41:38;;;;;;;;;;;17.80;99.90;;;;;;4922735;29;19927;-68
2022/11/24 14:44:06;;;;;;;;;;;17.80;99.90;;;;;;4923731;29;20342;-69
2022/11/24 14:46:33;;;;;;;;;;;17.00;99.90;;;;;;4929101;29;19927;-70
2022/11/24 14:48:59;;;;;;;;;;;16.50;99.90;;;;;;4922246;29;19930;-70
2022/11/24 14:51:28;;;;;;;;;;;16.70;99.90;;;;;;4928904;29;19931;-69
2022/11/24 14:53:55;;;;;;;;;;;15.70;99.90;;;;;;4912439;29;19927;-69
2022/11/24 14:56:25;;;;;;;;;;;15.20;99.90;;;;;;4924244;29;20334;-69
2022/11/24 14:58:53;;;;;;;;;;;14.90;99.90;;;;;;4925405;29;19931;-69
2022/11/24 15:01:21;;;;;;;;;;;14.80;99.90;;;;;;4923732;29;19934;-69
2022/11/24 15:04:03;;;;;;;;;;;14.70;99.90;;;;;;4927941;29;19934;-70
2022/11/24 15:06:30;;;;;;;;;;;14.30;99.90;;;;;;4921743;29;20287;-69
2022/11/24 15:08:57;;;;;;;;;;;14.00;99.90;;;;;;4918817;29;19931;-69
2022/11/24 15:11:25;;;;;;;;;;;13.50;99.90;;;;;;4920627;29;19926;-69
2022/11/24 15:13:54;;;;;;;;;;;12.90;99.90;;;;;;4921504;29;19930;-69
2022/11/24 15:16:23;;;;;;;;;;;12.50;99.90;;;;;;4927015;29;19926;-69
2022/11/24 15:18:56;;;;;;;;;;;12.20;99.90;;;;;;4933100;29;20409;-67
2022/11/24 15:21:29;;;;;;;;;;;12.00;99.90;;;;;;4923657;29;19927;-68
2022/11/24 15:24:07;;;;;;;;;;;11.80;99.90;;;;;;4914647;29;19926;-68
2022/11/24 15:26:35;;;;;;;;;;;11.70;99.90;;;;;;4922692;29;19931;-69
2022/11/24 15:29:01;;;;;;;;;;;11.60;99.90;;;;;;4936430;29;19926;-69
2022/11/24 15:31:28;;;;;;;;;;;11.40;99.90;;;;;;4921145;29;20450;-69
2022/11/24 15:33:55;;;;;;;;;;;11.30;99.90;;;;;;4921928;29;19931;-68
2022/11/24 15:36:22;;;;;;;;;;;11.10;99.90;;;;;;4923076;29;19934;-69
2022/11/24 15:38:50;;;;;;;;;;;11.00;99.90;;;;;;4922657;29;19960;-68
2022/11/24 15:41:17;;;;;;;;;;;10.90;99.90;;;;;;4929759;29;20019;-69
2022/11/24 15:43:46;;;;;;;;;;;10.80;99.90;;;;;;4922744;29;19927;-69
2022/11/24 15:46:13;;;;;;;;;;;10.80;99.90;;;;;;4921299;29;19931;-68
2022/11/24 15:48:40;;;;;;;;;;;10.60;99.90;;;;;;4923582;29;19930;-68
2022/11/24 15:51:08;;;;;;;;;;;10.50;99.90;;;;;;4930829;29;19926;-69
2022/11/24 15:53:36;;;;;;;;;;;10.40;99.90;;;;;;4921953;29;19971;-68
2022/11/24 15:56:03;;;;;;;;;;;10.30;99.90;;;;;;4921970;29;19931;-68
2022/11/24 15:58:30;;;;;;;;;;;10.20;99.90;;;;;;4923257;29;19927;-69
2022/11/24 16:00:58;;;;;;;;;;;10.20;99.90;;;;;;4924231;29;19938;-68
2022/11/24 16:03:25;;;;;;;;;;;10.10;99.90;;;;;;4989365;23;19974;-70
2022/11/24 16:05:54;;;;;;;;;;;10.10;99.90;;;;;;4973806;28;20033;-70
2022/11/24 16:08:21;;;;;;;;;;;10.10;99.90;;;;;;4973341;28;19977;-70
2022/11/24 16:10:47;;;;;;;;;;;10.00;99.90;;;;;;4972871;28;20413;-70
2022/11/24 16:13:14;;;;;;;;;;;10.00;99.90;;;;;;4972725;28;19933;-70
2022/11/24 16:15:41;;;;;;;;;;;9.90;99.90;;;;;;4973045;28;19926;-70
2022/11/24 16:18:09;;;;;;;;;;;9.90;99.90;;;;;;4973849;28;19930;-71
2022/11/24 16:20:36;;;;;;;;;;;9.80;99.90;;;;;;4973184;28;19930;-70
2022/11/24 16:23:03;;;;;;;;;;;9.80;99.90;;;;;;4972739;28;19929;-71
2022/11/24 16:25:30;;;;;;;;;;;9.70;99.90;;;;;;4972030;28;19930;-72
2022/11/24 16:27:57;;;;;;;;;;;9.60;99.90;;;;;;4967719;28;20008;-72
2022/11/24 16:30:24;;;;;;;;;;;9.60;99.90;;;;;;4971576;28;19930;-72
2022/11/24 16:32:51;;;;;;;;;;;9.60;99.90;;;;;;4970593;28;19934;-70
2022/11/24 16:35:19;;;;;;;;;;;9.50;99.90;;;;;;4969495;28;19926;-71
2022/11/24 16:37:46;;;;;;;;;;;9.40;99.90;;;;;;4970726;28;19930;-71
2022/11/24 16:40:13;;;;;;;;;;;9.40;99.90;;;;;;4972466;28;20331;-73
2022/11/24 16:42:39;;;;;;;;;;;9.30;99.90;;;;;;4971168;28;19926;-70
2022/11/24 16:45:07;;;;;;;;;;;9.20;99.90;;;;;;4973172;28;19985;-70
2022/11/24 16:47:38;;;;;;;;;;;9.10;99.90;;;;;;4972813;28;19930;-71
2022/11/24 16:50:05;;;;;;;;;;;9.00;99.90;;;;;;4972354;28;19926;-71
2022/11/24 16:52:33;;;;;;;;;;;8.90;99.90;;;;;;4972512;28;19926;-71
2022/11/24 16:55:00;;;;;;;;;;;8.80;99.90;;;;;;4972302;28;20053;-71
2022/11/24 16:57:27;;;;;;;;;;;8.70;99.90;;;;;;4972644;28;19926;-71
2022/11/24 16:59:54;;;;;;;;;;;8.70;99.90;;;;;;4972433;28;19930;-71
2022/11/24 17:02:21;;;;;;;;;;;8.60;99.90;;;;;;4971958;28;19926;-71
2022/11/24 17:04:50;;;;;;;;;;;8.60;99.90;;;;;;4972835;28;20400;-71
2022/11/24 17:07:17;;;;;;;;;;;8.60;99.90;;;;;;4972973;28;19926;-71
2022/11/24 17:09:46;;;;;;;;;;;8.70;99.90;;;;;;4972446;28;19926;-71
2022/11/24 17:12:12;;;;;;;;;;;8.70;99.90;;;;;;4972136;28;19926;-71
2022/11/24 17:14:39;;;;;;;;;;;8.60;99.90;;;;;;4972596;28;19930;-71
2022/11/24 17:17:06;;;;;;;;;;;8.50;99.90;;;;;;4972349;28;19926;-68
2022/11/24 17:19:33;;;;;;;;;;;8.50;99.90;;;;;;4972363;28;19933;-66
2022/11/24 17:21:59;;;;;;;;;;;8.50;99.90;;;;;;4971513;28;19930;-69
2022/11/24 17:24:26;;;;;;;;;;;8.40;99.90;;;;;;4972026;28;19926;-71
2022/11/24 17:26:54;;;;;;;;;;;8.40;99.90;;;;;;4968087;28;19926;-69
2022/11/24 17:29:21;;;;;;;;;;;8.40;99.90;;;;;;4968904;28;19933;-73
2022/11/24 17:31:48;;;;;;;;;;;8.30;99.90;;;;;;4966734;28;19926;-76
2022/11/24 17:34:15;;;;;;;;;;;8.30;99.90;;;;;;4971010;28;20393;-75
2022/11/24 17:36:44;;;;;;;;;;;8.30;99.90;;;;;;4969349;28;20340;-71
2022/11/24 17:39:11;;;;;;;;;;;8.20;99.90;;;;;;4963545;28;19962;-71
2022/11/24 17:41:38;;;;;;;;;;;8.10;99.90;;;;;;4969688;28;19926;-68
2022/11/24 17:44:09;;;;;;;;;;;8.10;99.90;;;;;;4970887;28;19927;-69
2022/11/24 17:46:36;;;;;;;;;;;8.10;99.90;;;;;;4971585;28;19926;-73
2022/11/24 17:49:03;;;;;;;;;;;8.10;99.90;;;;;;4971190;28;19926;-68
2022/11/24 17:51:30;;;;;;;;;;;8.10;99.90;;;;;;4971306;28;20378;-65
2022/11/24 17:53:57;;;;;;;;;;;8.10;99.90;;;;;;4970261;28;19926;-67
2022/11/24 17:56:25;;;;;;;;;;;8.10;99.90;;;;;;4969338;28;20005;-68
2022/11/24 17:58:52;;;;;;;;;;;8.10;99.90;;;;;;4971224;28;19930;-66
2022/11/24 18:01:21;;;;;;;;;;;8.00;99.90;;;;;;4971502;28;19969;-68
2022/11/24 18:03:48;;;;;;;;;;;8.00;99.90;;;;;;4970356;28;19930;-67
2022/11/24 18:06:15;;;;;;;;;;;8.00;99.90;;;;;;4969302;28;19930;-68
2022/11/24 18:08:42;;;;;;;;;;;8.00;99.90;;;;;;4969905;28;19925;-69
2022/11/24 18:11:11;;;;;;;;;;;8.00;99.90;;;;;;4968992;28;19926;-69
2022/11/24 18:13:40;;;;;;;;;;;8.00;99.90;;;;;;4965608;28;20633;-68
2022/11/24 18:16:08;;;;;;;;;;;8.00;99.90;;;;;;4968645;28;20353;-65
2022/11/24 18:18:36;;;;;;;;;;;8.00;99.90;;;;;;4971821;28;19933;-65
2022/11/24 18:21:03;;;;;;;;;;;7.90;99.90;;;;;;4971778;28;19939;-65
2022/11/24 18:23:32;;;;;;;;;;;7.80;99.90;;;;;;4970529;28;19961;-66
2022/11/24 18:25:59;;;;;;;;;;;7.80;99.90;;;;;;4971139;28;19988;-62
2022/11/24 18:28:27;;;;;;;;;;;7.70;99.90;;;;;;4970897;28;19926;-63
2022/11/24 18:30:59;;;;;;;;;;;7.70;99.90;;;;;;4966970;28;20163;-64
2022/11/24 18:33:26;;;;;;;;;;;7.60;99.90;;;;;;4970790;28;19933;-63
2022/11/24 18:35:58;;;;;;;;;;;7.60;99.90;;;;;;4966209;28;19994;-63